sensor_id;sensor_type;location;lat;lon;timestamp;P1;durP1;ratioP1;P2;durP2;ratioP2
44430;SDS011;30135;47.866;-4.222;2024-01-30T00:02:17;17.77;;;1.58;;
44430;SDS011;30135;47.866;-4.222;2024-01-30T00:04:43;5.25;;;0.68;;
44430;SDS011;30135;47.866;-4.222;2024-01-30T00:07:09;10.80;;;0.98;;
44430;SDS011;30135;47.866;-4.222;2024-01-30T00:09:35;2.47;;;0.70;;
44430;SDS011;30135;47.866;-4.222;2024-01-30T00:12:04;10.27;;;1.10;;
44430;SDS011;30135;47.866;-4.222;2024-01-30T00:14:31;10.95;;;1.30;;
44430;SDS011;30135;47.866;-4.222;2024-01-30T00:16:57;4.25;;;0.70;;
44430;SDS011;30135;47.866;-4.222;2024-01-30T00:19:23;12.30;;;0.77;;
44430;SDS011;30135;47.866;-4.222;2024-01-30T00:21:49;11.98;;;0.75;;
44430;SDS011;30135;47.866;-4.222;2024-01-30T00:24:15;8.20;;;0.85;;
44430;SDS011;30135;47.866;-4.222;2024-01-30T00:26:42;4.93;;;0.88;;
44430;SDS011;30135;47.866;-4.222;2024-01-30T00:29:08;10.50;;;1.02;;
44430;SDS011;30135;47.866;-4.222;2024-01-30T00:31:34;16.13;;;1.38;;
44430;SDS011;30135;47.866;-4.222;2024-01-30T00:34:01;11.15;;;1.00;;
44430;SDS011;30135;47.866;-4.222;2024-01-30T00:36:27;9.77;;;1.80;;
44430;SDS011;30135;47.866;-4.222;2024-01-30T00:38:55;6.38;;;1.25;;
44430;SDS011;30135;47.866;-4.222;2024-01-30T00:41:21;3.90;;;0.90;;
44430;SDS011;30135;47.866;-4.222;2024-01-30T00:43:47;8.63;;;1.30;;
44430;SDS011;30135;47.866;-4.222;2024-01-30T00:46:13;8.85;;;0.95;;
44430;SDS011;30135;47.866;-4.222;2024-01-30T00:48:38;12.27;;;1.38;;
44430;SDS011;30135;47.866;-4.222;2024-01-30T00:51:04;7.55;;;1.00;;
44430;SDS011;30135;47.866;-4.222;2024-01-30T00:53:30;10.25;;;1.02;;
44430;SDS011;30135;47.866;-4.222;2024-01-30T00:55:56;2.10;;;0.75;;
44430;SDS011;30135;47.866;-4.222;2024-01-30T00:58:22;10.50;;;2.15;;
44430;SDS011;30135;47.866;-4.222;2024-01-30T01:00:48;5.25;;;0.85;;
44430;SDS011;30135;47.866;-4.222;2024-01-30T01:03:14;7.68;;;1.63;;
44430;SDS011;30135;47.866;-4.222;2024-01-30T01:05:40;6.88;;;1.33;;
44430;SDS011;30135;47.866;-4.222;2024-01-30T01:08:06;10.15;;;1.17;;
44430;SDS011;30135;47.866;-4.222;2024-01-30T01:10:32;14.25;;;1.48;;
44430;SDS011;30135;47.866;-4.222;2024-01-30T01:12:58;5.10;;;1.20;;
44430;SDS011;30135;47.866;-4.222;2024-01-30T01:15:24;3.55;;;1.02;;
44430;SDS011;30135;47.866;-4.222;2024-01-30T01:17:49;6.45;;;1.30;;
44430;SDS011;30135;47.866;-4.222;2024-01-30T01:20:15;15.50;;;1.80;;
44430;SDS011;30135;47.866;-4.222;2024-01-30T01:22:41;4.88;;;0.93;;
44430;SDS011;30135;47.866;-4.222;2024-01-30T01:25:08;19.05;;;2.45;;
44430;SDS011;30135;47.866;-4.222;2024-01-30T01:27:35;4.10;;;1.10;;
44430;SDS011;30135;47.866;-4.222;2024-01-30T01:30:06;10.23;;;1.95;;
44430;SDS011;30135;47.866;-4.222;2024-01-30T01:32:36;17.92;;;1.75;;
44430;SDS011;30135;47.866;-4.222;2024-01-30T01:35:03;22.88;;;1.48;;
44430;SDS011;30135;47.866;-4.222;2024-01-30T01:37:33;9.70;;;1.65;;
44430;SDS011;30135;47.866;-4.222;2024-01-30T01:39:59;17.70;;;3.60;;
44430;SDS011;30135;47.866;-4.222;2024-01-30T01:42:25;19.10;;;3.20;;
44430;SDS011;30135;47.866;-4.222;2024-01-30T01:44:51;25.73;;;2.60;;
44430;SDS011;30135;47.866;-4.222;2024-01-30T01:47:17;26.52;;;2.92;;
44430;SDS011;30135;47.866;-4.222;2024-01-30T01:49:43;25.95;;;2.60;;
44430;SDS011;30135;47.866;-4.222;2024-01-30T01:52:09;6.90;;;1.48;;
44430;SDS011;30135;47.866;-4.222;2024-01-30T01:54:36;13.15;;;1.45;;
44430;SDS011;30135;47.866;-4.222;2024-01-30T01:57:01;17.90;;;1.88;;
44430;SDS011;30135;47.866;-4.222;2024-01-30T01:59:28;16.70;;;3.13;;
44430;SDS011;30135;47.866;-4.222;2024-01-30T02:01:54;28.02;;;2.38;;
44430;SDS011;30135;47.866;-4.222;2024-01-30T02:04:21;16.30;;;2.00;;
44430;SDS011;30135;47.866;-4.222;2024-01-30T02:06:47;7.57;;;1.52;;
44430;SDS011;30135;47.866;-4.222;2024-01-30T02:09:13;8.73;;;1.77;;
44430;SDS011;30135;47.866;-4.222;2024-01-30T02:11:39;12.50;;;2.03;;
44430;SDS011;30135;47.866;-4.222;2024-01-30T02:14:06;17.60;;;2.17;;
44430;SDS011;30135;47.866;-4.222;2024-01-30T02:16:32;21.13;;;2.00;;
44430;SDS011;30135;47.866;-4.222;2024-01-30T02:18:58;5.82;;;1.60;;
44430;SDS011;30135;47.866;-4.222;2024-01-30T02:21:23;9.65;;;1.20;;
44430;SDS011;30135;47.866;-4.222;2024-01-30T02:23:50;4.78;;;1.05;;
44430;SDS011;30135;47.866;-4.222;2024-01-30T02:26:17;15.63;;;1.75;;
44430;SDS011;30135;47.866;-4.222;2024-01-30T02:28:43;19.00;;;1.65;;
44430;SDS011;30135;47.866;-4.222;2024-01-30T02:31:09;18.02;;;1.20;;
44430;SDS011;30135;47.866;-4.222;2024-01-30T02:33:35;9.98;;;1.75;;
44430;SDS011;30135;47.866;-4.222;2024-01-30T02:36:01;7.10;;;1.45;;
44430;SDS011;30135;47.866;-4.222;2024-01-30T02:38:28;8.15;;;1.08;;
44430;SDS011;30135;47.866;-4.222;2024-01-30T02:40:56;6.18;;;1.33;;
44430;SDS011;30135;47.866;-4.222;2024-01-30T02:43:22;9.63;;;1.38;;
44430;SDS011;30135;47.866;-4.222;2024-01-30T02:45:48;5.95;;;1.27;;
44430;SDS011;30135;47.866;-4.222;2024-01-30T02:48:14;10.35;;;1.15;;
44430;SDS011;30135;47.866;-4.222;2024-01-30T02:50:40;13.15;;;1.17;;
44430;SDS011;30135;47.866;-4.222;2024-01-30T02:53:06;7.72;;;2.33;;
44430;SDS011;30135;47.866;-4.222;2024-01-30T02:55:32;13.25;;;2.22;;
44430;SDS011;30135;47.866;-4.222;2024-01-30T02:57:58;12.15;;;2.00;;
44430;SDS011;30135;47.866;-4.222;2024-01-30T03:00:24;7.57;;;1.20;;
44430;SDS011;30135;47.866;-4.222;2024-01-30T03:02:50;12.77;;;1.60;;
44430;SDS011;30135;47.866;-4.222;2024-01-30T03:05:16;6.65;;;2.17;;
44430;SDS011;30135;47.866;-4.222;2024-01-30T03:07:43;17.92;;;1.95;;
44430;SDS011;30135;47.866;-4.222;2024-01-30T03:10:09;6.40;;;1.05;;
44430;SDS011;30135;47.866;-4.222;2024-01-30T03:12:35;11.57;;;1.30;;
44430;SDS011;30135;47.866;-4.222;2024-01-30T03:15:01;9.75;;;1.70;;
44430;SDS011;30135;47.866;-4.222;2024-01-30T03:17:27;13.50;;;1.45;;
44430;SDS011;30135;47.866;-4.222;2024-01-30T03:19:53;11.18;;;1.48;;
44430;SDS011;30135;47.866;-4.222;2024-01-30T03:22:18;13.05;;;1.23;;
44430;SDS011;30135;47.866;-4.222;2024-01-30T03:24:44;6.65;;;1.70;;
44430;SDS011;30135;47.866;-4.222;2024-01-30T03:27:10;13.40;;;2.22;;
44430;SDS011;30135;47.866;-4.222;2024-01-30T03:29:36;13.25;;;2.70;;
44430;SDS011;30135;47.866;-4.222;2024-01-30T03:32:02;34.72;;;3.05;;
44430;SDS011;30135;47.866;-4.222;2024-01-30T03:34:29;11.52;;;1.55;;
44430;SDS011;30135;47.866;-4.222;2024-01-30T03:36:55;6.93;;;1.75;;
44430;SDS011;30135;47.866;-4.222;2024-01-30T03:39:21;5.47;;;1.90;;
44430;SDS011;30135;47.866;-4.222;2024-01-30T03:41:48;13.25;;;1.85;;
44430;SDS011;30135;47.866;-4.222;2024-01-30T03:44:14;13.18;;;1.35;;
44430;SDS011;30135;47.866;-4.222;2024-01-30T03:46:46;11.30;;;1.70;;
44430;SDS011;30135;47.866;-4.222;2024-01-30T03:49:12;7.60;;;1.20;;
44430;SDS011;30135;47.866;-4.222;2024-01-30T03:51:38;6.78;;;2.35;;
44430;SDS011;30135;47.866;-4.222;2024-01-30T03:54:04;5.32;;;1.33;;
44430;SDS011;30135;47.866;-4.222;2024-01-30T03:56:30;16.83;;;1.25;;
44430;SDS011;30135;47.866;-4.222;2024-01-30T03:58:56;8.55;;;1.35;;
44430;SDS011;30135;47.866;-4.222;2024-01-30T04:01:23;5.97;;;1.10;;
44430;SDS011;30135;47.866;-4.222;2024-01-30T04:03:49;14.10;;;1.83;;
44430;SDS011;30135;47.866;-4.222;2024-01-30T04:06:15;6.88;;;1.27;;
44430;SDS011;30135;47.866;-4.222;2024-01-30T04:08:41;18.38;;;2.17;;
44430;SDS011;30135;47.866;-4.222;2024-01-30T04:11:07;10.05;;;1.98;;
44430;SDS011;30135;47.866;-4.222;2024-01-30T04:13:33;10.15;;;2.40;;
44430;SDS011;30135;47.866;-4.222;2024-01-30T04:15:59;9.27;;;1.90;;
44430;SDS011;30135;47.866;-4.222;2024-01-30T04:18:29;4.70;;;1.30;;
44430;SDS011;30135;47.866;-4.222;2024-01-30T04:20:55;9.32;;;2.70;;
44430;SDS011;30135;47.866;-4.222;2024-01-30T04:23:21;7.63;;;0.95;;
44430;SDS011;30135;47.866;-4.222;2024-01-30T04:25:47;5.95;;;1.45;;
44430;SDS011;30135;47.866;-4.222;2024-01-30T04:28:13;15.57;;;1.92;;
44430;SDS011;30135;47.866;-4.222;2024-01-30T04:30:39;14.82;;;1.88;;
44430;SDS011;30135;47.866;-4.222;2024-01-30T04:33:05;12.05;;;0.85;;
44430;SDS011;30135;47.866;-4.222;2024-01-30T04:35:31;5.90;;;1.42;;
44430;SDS011;30135;47.866;-4.222;2024-01-30T04:37:58;10.75;;;1.63;;
44430;SDS011;30135;47.866;-4.222;2024-01-30T04:40:24;9.25;;;1.60;;
44430;SDS011;30135;47.866;-4.222;2024-01-30T04:42:50;7.13;;;1.60;;
44430;SDS011;30135;47.866;-4.222;2024-01-30T04:45:16;11.45;;;2.70;;
44430;SDS011;30135;47.866;-4.222;2024-01-30T04:47:42;7.15;;;2.03;;
44430;SDS011;30135;47.866;-4.222;2024-01-30T04:50:08;7.40;;;1.38;;
44430;SDS011;30135;47.866;-4.222;2024-01-30T04:52:35;6.35;;;1.50;;
44430;SDS011;30135;47.866;-4.222;2024-01-30T04:55:01;4.93;;;1.50;;
44430;SDS011;30135;47.866;-4.222;2024-01-30T04:57:27;11.75;;;1.10;;
44430;SDS011;30135;47.866;-4.222;2024-01-30T04:59:53;6.10;;;1.10;;
44430;SDS011;30135;47.866;-4.222;2024-01-30T05:02:19;5.45;;;1.00;;
44430;SDS011;30135;47.866;-4.222;2024-01-30T05:04:45;6.00;;;1.38;;
44430;SDS011;30135;47.866;-4.222;2024-01-30T05:07:11;2.22;;;0.90;;
44430;SDS011;30135;47.866;-4.222;2024-01-30T05:09:37;6.60;;;1.63;;
44430;SDS011;30135;47.866;-4.222;2024-01-30T05:12:03;9.23;;;1.25;;
44430;SDS011;30135;47.866;-4.222;2024-01-30T05:14:29;18.38;;;1.70;;
44430;SDS011;30135;47.866;-4.222;2024-01-30T05:16:55;10.15;;;1.58;;
44430;SDS011;30135;47.866;-4.222;2024-01-30T05:19:21;14.93;;;2.65;;
44430;SDS011;30135;47.866;-4.222;2024-01-30T05:21:48;4.03;;;0.77;;
44430;SDS011;30135;47.866;-4.222;2024-01-30T05:24:15;8.43;;;0.80;;
44430;SDS011;30135;47.866;-4.222;2024-01-30T05:26:41;18.88;;;1.25;;
44430;SDS011;30135;47.866;-4.222;2024-01-30T05:29:07;7.65;;;1.02;;
44430;SDS011;30135;47.866;-4.222;2024-01-30T05:31:33;3.30;;;1.83;;
44430;SDS011;30135;47.866;-4.222;2024-01-30T05:34:00;7.63;;;0.82;;
44430;SDS011;30135;47.866;-4.222;2024-01-30T05:36:26;9.02;;;1.10;;
44430;SDS011;30135;47.866;-4.222;2024-01-30T05:38:52;7.53;;;0.73;;
44430;SDS011;30135;47.866;-4.222;2024-01-30T05:41:18;7.75;;;1.08;;
44430;SDS011;30135;47.866;-4.222;2024-01-30T05:43:46;11.15;;;0.90;;
44430;SDS011;30135;47.866;-4.222;2024-01-30T05:46:12;7.93;;;1.30;;
44430;SDS011;30135;47.866;-4.222;2024-01-30T05:48:37;9.07;;;2.03;;
44430;SDS011;30135;47.866;-4.222;2024-01-30T05:51:03;10.25;;;3.30;;
44430;SDS011;30135;47.866;-4.222;2024-01-30T05:53:30;13.25;;;3.53;;
44430;SDS011;30135;47.866;-4.222;2024-01-30T05:55:56;14.48;;;3.17;;
44430;SDS011;30135;47.866;-4.222;2024-01-30T05:58:22;14.02;;;3.42;;
44430;SDS011;30135;47.866;-4.222;2024-01-30T06:00:48;12.02;;;3.72;;
44430;SDS011;30135;47.866;-4.222;2024-01-30T06:03:14;10.05;;;2.92;;
44430;SDS011;30135;47.866;-4.222;2024-01-30T06:05:39;8.02;;;2.45;;
44430;SDS011;30135;47.866;-4.222;2024-01-30T06:08:05;17.40;;;3.25;;
44430;SDS011;30135;47.866;-4.222;2024-01-30T06:10:32;16.45;;;3.28;;
44430;SDS011;30135;47.866;-4.222;2024-01-30T06:12:58;8.70;;;2.85;;
44430;SDS011;30135;47.866;-4.222;2024-01-30T06:15:23;11.45;;;2.97;;
44430;SDS011;30135;47.866;-4.222;2024-01-30T06:17:49;7.28;;;1.45;;
44430;SDS011;30135;47.866;-4.222;2024-01-30T06:20:15;17.83;;;2.38;;
44430;SDS011;30135;47.866;-4.222;2024-01-30T06:22:41;9.90;;;1.70;;
44430;SDS011;30135;47.866;-4.222;2024-01-30T06:25:07;2.22;;;0.85;;
44430;SDS011;30135;47.866;-4.222;2024-01-30T06:27:42;4.82;;;1.38;;
44430;SDS011;30135;47.866;-4.222;2024-01-30T06:30:08;8.55;;;1.58;;
44430;SDS011;30135;47.866;-4.222;2024-01-30T06:32:35;8.13;;;1.58;;
44430;SDS011;30135;47.866;-4.222;2024-01-30T06:35:01;6.05;;;1.33;;
44430;SDS011;30135;47.866;-4.222;2024-01-30T06:37:28;4.07;;;1.23;;
44430;SDS011;30135;47.866;-4.222;2024-01-30T06:39:54;2.72;;;1.02;;
44430;SDS011;30135;47.866;-4.222;2024-01-30T06:42:20;3.25;;;1.27;;
44430;SDS011;30135;47.866;-4.222;2024-01-30T06:44:46;5.20;;;0.60;;
44430;SDS011;30135;47.866;-4.222;2024-01-30T06:47:12;2.15;;;0.60;;
44430;SDS011;30135;47.866;-4.222;2024-01-30T06:49:38;4.05;;;1.48;;
44430;SDS011;30135;47.866;-4.222;2024-01-30T06:52:05;3.50;;;1.17;;
44430;SDS011;30135;47.866;-4.222;2024-01-30T06:54:31;6.47;;;2.75;;
44430;SDS011;30135;47.866;-4.222;2024-01-30T06:56:58;2.38;;;0.90;;
44430;SDS011;30135;47.866;-4.222;2024-01-30T06:59:24;9.60;;;1.42;;
44430;SDS011;30135;47.866;-4.222;2024-01-30T07:01:50;8.23;;;1.92;;
44430;SDS011;30135;47.866;-4.222;2024-01-30T07:04:16;6.75;;;2.70;;
44430;SDS011;30135;47.866;-4.222;2024-01-30T07:06:43;14.20;;;3.75;;
44430;SDS011;30135;47.866;-4.222;2024-01-30T07:09:09;7.70;;;2.85;;
44430;SDS011;30135;47.866;-4.222;2024-01-30T07:11:35;6.90;;;2.80;;
44430;SDS011;30135;47.866;-4.222;2024-01-30T07:14:01;8.32;;;2.20;;
44430;SDS011;30135;47.866;-4.222;2024-01-30T07:16:30;7.40;;;1.38;;
44430;SDS011;30135;47.866;-4.222;2024-01-30T07:18:56;13.05;;;2.83;;
44430;SDS011;30135;47.866;-4.222;2024-01-30T07:21:23;7.25;;;1.52;;
44430;SDS011;30135;47.866;-4.222;2024-01-30T07:23:53;6.68;;;1.70;;
44430;SDS011;30135;47.866;-4.222;2024-01-30T07:26:20;4.20;;;1.65;;
44430;SDS011;30135;47.866;-4.222;2024-01-30T07:28:47;9.57;;;2.10;;
44430;SDS011;30135;47.866;-4.222;2024-01-30T07:31:12;5.85;;;1.60;;
44430;SDS011;30135;47.866;-4.222;2024-01-30T07:33:38;4.22;;;1.10;;
44430;SDS011;30135;47.866;-4.222;2024-01-30T07:36:04;4.43;;;1.02;;
44430;SDS011;30135;47.866;-4.222;2024-01-30T07:38:33;4.90;;;1.05;;
44430;SDS011;30135;47.866;-4.222;2024-01-30T07:40:59;1.92;;;0.75;;
44430;SDS011;30135;47.866;-4.222;2024-01-30T07:43:26;3.88;;;0.88;;
44430;SDS011;30135;47.866;-4.222;2024-01-30T07:45:51;5.72;;;1.30;;
44430;SDS011;30135;47.866;-4.222;2024-01-30T07:48:17;7.57;;;1.20;;
44430;SDS011;30135;47.866;-4.222;2024-01-30T07:50:44;4.15;;;1.42;;
44430;SDS011;30135;47.866;-4.222;2024-01-30T07:53:10;14.18;;;1.63;;
44430;SDS011;30135;47.866;-4.222;2024-01-30T07:55:36;3.25;;;1.65;;
44430;SDS011;30135;47.866;-4.222;2024-01-30T07:58:02;8.82;;;2.50;;
44430;SDS011;30135;47.866;-4.222;2024-01-30T08:00:29;10.88;;;2.15;;
44430;SDS011;30135;47.866;-4.222;2024-01-30T08:02:55;4.88;;;1.70;;
44430;SDS011;30135;47.866;-4.222;2024-01-30T08:05:22;4.78;;;2.03;;
44430;SDS011;30135;47.866;-4.222;2024-01-30T08:07:48;3.35;;;1.75;;
44430;SDS011;30135;47.866;-4.222;2024-01-30T08:10:15;5.75;;;1.42;;
44430;SDS011;30135;47.866;-4.222;2024-01-30T08:12:41;12.25;;;1.67;;
44430;SDS011;30135;47.866;-4.222;2024-01-30T08:15:07;2.67;;;1.33;;
44430;SDS011;30135;47.866;-4.222;2024-01-30T08:17:33;12.63;;;1.90;;
44430;SDS011;30135;47.866;-4.222;2024-01-30T08:19:59;10.45;;;2.33;;
44430;SDS011;30135;47.866;-4.222;2024-01-30T08:22:25;8.63;;;1.65;;
44430;SDS011;30135;47.866;-4.222;2024-01-30T08:24:51;9.75;;;3.13;;
44430;SDS011;30135;47.866;-4.222;2024-01-30T08:27:17;11.20;;;2.75;;
44430;SDS011;30135;47.866;-4.222;2024-01-30T08:29:43;14.27;;;2.70;;
44430;SDS011;30135;47.866;-4.222;2024-01-30T08:32:09;9.63;;;2.03;;
44430;SDS011;30135;47.866;-4.222;2024-01-30T08:34:35;10.30;;;2.53;;
44430;SDS011;30135;47.866;-4.222;2024-01-30T08:37:01;9.63;;;2.05;;
44430;SDS011;30135;47.866;-4.222;2024-01-30T08:39:27;13.40;;;2.50;;
44430;SDS011;30135;47.866;-4.222;2024-01-30T08:41:53;10.43;;;1.65;;
44430;SDS011;30135;47.866;-4.222;2024-01-30T08:44:19;5.65;;;2.22;;
44430;SDS011;30135;47.866;-4.222;2024-01-30T08:46:45;10.13;;;1.92;;
44430;SDS011;30135;47.866;-4.222;2024-01-30T08:49:11;9.65;;;2.50;;
44430;SDS011;30135;47.866;-4.222;2024-01-30T08:51:41;10.38;;;2.58;;
44430;SDS011;30135;47.866;-4.222;2024-01-30T08:54:07;6.78;;;2.90;;
44430;SDS011;30135;47.866;-4.222;2024-01-30T08:56:33;8.13;;;2.35;;
44430;SDS011;30135;47.866;-4.222;2024-01-30T08:58:59;3.38;;;1.50;;
44430;SDS011;30135;47.866;-4.222;2024-01-30T09:01:25;10.38;;;1.67;;
44430;SDS011;30135;47.866;-4.222;2024-01-30T09:03:51;5.82;;;2.50;;
44430;SDS011;30135;47.866;-4.222;2024-01-30T09:06:17;8.18;;;1.50;;
44430;SDS011;30135;47.866;-4.222;2024-01-30T09:08:43;5.43;;;1.95;;
44430;SDS011;30135;47.866;-4.222;2024-01-30T09:11:13;3.60;;;2.22;;
44430;SDS011;30135;47.866;-4.222;2024-01-30T09:13:40;4.28;;;2.38;;
44430;SDS011;30135;47.866;-4.222;2024-01-30T09:16:07;8.73;;;2.15;;
44430;SDS011;30135;47.866;-4.222;2024-01-30T09:18:33;3.53;;;1.90;;
44430;SDS011;30135;47.866;-4.222;2024-01-30T09:20:59;4.63;;;2.58;;
44430;SDS011;30135;47.866;-4.222;2024-01-30T09:23:26;8.40;;;1.90;;
44430;SDS011;30135;47.866;-4.222;2024-01-30T09:25:53;5.15;;;1.70;;
44430;SDS011;30135;47.866;-4.222;2024-01-30T09:28:20;2.55;;;1.20;;
44430;SDS011;30135;47.866;-4.222;2024-01-30T09:30:46;3.88;;;1.73;;
44430;SDS011;30135;47.866;-4.222;2024-01-30T09:33:12;2.75;;;1.30;;
44430;SDS011;30135;47.866;-4.222;2024-01-30T09:35:38;4.43;;;1.80;;
44430;SDS011;30135;47.866;-4.222;2024-01-30T09:38:04;6.53;;;2.25;;
44430;SDS011;30135;47.866;-4.222;2024-01-30T09:40:30;6.30;;;2.67;;
44430;SDS011;30135;47.866;-4.222;2024-01-30T09:42:56;4.88;;;2.00;;
44430;SDS011;30135;47.866;-4.222;2024-01-30T09:45:25;9.70;;;2.20;;
44430;SDS011;30135;47.866;-4.222;2024-01-30T09:47:52;5.25;;;2.10;;
44430;SDS011;30135;47.866;-4.222;2024-01-30T09:50:18;7.63;;;2.83;;
44430;SDS011;30135;47.866;-4.222;2024-01-30T09:52:51;6.93;;;2.40;;
44430;SDS011;30135;47.866;-4.222;2024-01-30T09:55:20;7.05;;;2.45;;
44430;SDS011;30135;47.866;-4.222;2024-01-30T09:57:47;4.05;;;1.95;;
44430;SDS011;30135;47.866;-4.222;2024-01-30T10:00:12;9.68;;;2.30;;
44430;SDS011;30135;47.866;-4.222;2024-01-30T10:02:39;8.45;;;2.60;;
44430;SDS011;30135;47.866;-4.222;2024-01-30T10:05:06;12.10;;;3.10;;
44430;SDS011;30135;47.866;-4.222;2024-01-30T10:07:33;6.45;;;2.22;;
44430;SDS011;30135;47.866;-4.222;2024-01-30T10:09:59;4.18;;;1.80;;
44430;SDS011;30135;47.866;-4.222;2024-01-30T10:12:26;9.20;;;1.90;;
44430;SDS011;30135;47.866;-4.222;2024-01-30T10:14:52;17.17;;;1.60;;
44430;SDS011;30135;47.866;-4.222;2024-01-30T10:17:19;5.80;;;1.42;;
44430;SDS011;30135;47.866;-4.222;2024-01-30T10:19:46;7.53;;;1.27;;
44430;SDS011;30135;47.866;-4.222;2024-01-30T10:22:12;14.00;;;1.15;;
44430;SDS011;30135;47.866;-4.222;2024-01-30T10:24:38;12.68;;;1.55;;
44430;SDS011;30135;47.866;-4.222;2024-01-30T10:27:05;3.35;;;1.42;;
44430;SDS011;30135;47.866;-4.222;2024-01-30T10:29:32;8.43;;;1.00;;
44430;SDS011;30135;47.866;-4.222;2024-01-30T10:32:01;8.20;;;0.98;;
44430;SDS011;30135;47.866;-4.222;2024-01-30T10:34:29;4.18;;;0.98;;
44430;SDS011;30135;47.866;-4.222;2024-01-30T10:39:40;1.65;;;0.73;;
44430;SDS011;30135;47.866;-4.222;2024-01-30T10:42:15;3.45;;;0.52;;
44430;SDS011;30135;47.866;-4.222;2024-01-30T10:45:25;4.78;;;0.82;;
44430;SDS011;30135;47.866;-4.222;2024-01-30T10:47:52;5.65;;;0.85;;
44430;SDS011;30135;47.866;-4.222;2024-01-30T10:50:26;4.07;;;1.02;;
44430;SDS011;30135;47.866;-4.222;2024-01-30T10:52:53;6.97;;;1.33;;
44430;SDS011;30135;47.866;-4.222;2024-01-30T10:55:20;6.25;;;1.83;;
44430;SDS011;30135;47.866;-4.222;2024-01-30T11:00:16;2.08;;;0.75;;
44430;SDS011;30135;47.866;-4.222;2024-01-30T11:02:45;3.65;;;0.82;;
44430;SDS011;30135;47.866;-4.222;2024-01-30T11:05:12;6.38;;;0.85;;
44430;SDS011;30135;47.866;-4.222;2024-01-30T11:07:40;10.98;;;1.20;;
44430;SDS011;30135;47.866;-4.222;2024-01-30T11:10:07;4.53;;;1.55;;
44430;SDS011;30135;47.866;-4.222;2024-01-30T11:12:37;4.68;;;0.85;;
44430;SDS011;30135;47.866;-4.222;2024-01-30T11:15:10;14.52;;;1.48;;
44430;SDS011;30135;47.866;-4.222;2024-01-30T11:17:42;17.55;;;3.13;;
44430;SDS011;30135;47.866;-4.222;2024-01-30T11:20:35;4.78;;;1.10;;
44430;SDS011;30135;47.866;-4.222;2024-01-30T11:23:01;4.88;;;0.90;;
44430;SDS011;30135;47.866;-4.222;2024-01-30T11:25:31;9.90;;;1.20;;
44430;SDS011;30135;47.866;-4.222;2024-01-30T11:27:58;3.85;;;0.75;;
44430;SDS011;30135;47.866;-4.222;2024-01-30T11:30:24;11.80;;;2.20;;
44430;SDS011;30135;47.866;-4.222;2024-01-30T11:35:32;11.25;;;1.17;;
44430;SDS011;30135;47.866;-4.222;2024-01-30T11:38:02;4.25;;;1.00;;
44430;SDS011;30135;47.866;-4.222;2024-01-30T11:40:30;3.20;;;1.27;;
44430;SDS011;30135;47.866;-4.222;2024-01-30T11:42:58;4.78;;;1.13;;
44430;SDS011;30135;47.866;-4.222;2024-01-30T11:45:26;1.40;;;0.47;;
44430;SDS011;30135;47.866;-4.222;2024-01-30T11:47:52;4.65;;;0.98;;
44430;SDS011;30135;47.866;-4.222;2024-01-30T11:50:19;7.25;;;0.95;;
44430;SDS011;30135;47.866;-4.222;2024-01-30T11:52:46;3.85;;;0.52;;
44430;SDS011;30135;47.866;-4.222;2024-01-30T11:55:13;1.00;;;0.40;;
44430;SDS011;30135;47.866;-4.222;2024-01-30T11:57:40;2.92;;;0.32;;
44430;SDS011;30135;47.866;-4.222;2024-01-30T12:00:13;12.00;;;2.60;;
44430;SDS011;30135;47.866;-4.222;2024-01-30T12:02:53;7.68;;;0.63;;
44430;SDS011;30135;47.866;-4.222;2024-01-30T12:05:25;9.13;;;0.90;;
44430;SDS011;30135;47.866;-4.222;2024-01-30T12:07:52;7.05;;;1.33;;
44430;SDS011;30135;47.866;-4.222;2024-01-30T12:10:18;3.95;;;0.82;;
44430;SDS011;30135;47.866;-4.222;2024-01-30T12:12:51;3.63;;;0.45;;
44430;SDS011;30135;47.866;-4.222;2024-01-30T12:15:18;2.42;;;0.40;;
44430;SDS011;30135;47.866;-4.222;2024-01-30T12:17:46;0.80;;;0.25;;
44430;SDS011;30135;47.866;-4.222;2024-01-30T12:20:13;2.38;;;0.65;;
44430;SDS011;30135;47.866;-4.222;2024-01-30T12:22:43;7.38;;;0.57;;
44430;SDS011;30135;47.866;-4.222;2024-01-30T12:25:16;2.58;;;0.47;;
44430;SDS011;30135;47.866;-4.222;2024-01-30T12:27:45;1.05;;;0.20;;
44430;SDS011;30135;47.866;-4.222;2024-01-30T12:30:17;17.55;;;0.63;;
44430;SDS011;30135;47.866;-4.222;2024-01-30T12:32:45;1.10;;;0.25;;
44430;SDS011;30135;47.866;-4.222;2024-01-30T12:35:15;6.13;;;0.55;;
44430;SDS011;30135;47.866;-4.222;2024-01-30T12:37:46;1.17;;;0.30;;
44430;SDS011;30135;47.866;-4.222;2024-01-30T12:40:14;10.57;;;1.63;;
44430;SDS011;30135;47.866;-4.222;2024-01-30T12:42:41;3.00;;;0.32;;
44430;SDS011;30135;47.866;-4.222;2024-01-30T12:45:08;2.65;;;0.52;;
44430;SDS011;30135;47.866;-4.222;2024-01-30T12:47:35;1.80;;;0.30;;
44430;SDS011;30135;47.866;-4.222;2024-01-30T12:50:01;9.55;;;2.05;;
44430;SDS011;30135;47.866;-4.222;2024-01-30T12:52:28;3.63;;;0.25;;
44430;SDS011;30135;47.866;-4.222;2024-01-30T12:54:54;3.30;;;0.50;;
44430;SDS011;30135;47.866;-4.222;2024-01-30T12:57:21;1.88;;;0.60;;
44430;SDS011;30135;47.866;-4.222;2024-01-30T12:59:47;5.90;;;0.90;;
44430;SDS011;30135;47.866;-4.222;2024-01-30T13:02:14;5.55;;;0.45;;
44430;SDS011;30135;47.866;-4.222;2024-01-30T13:04:42;5.45;;;0.35;;
44430;SDS011;30135;47.866;-4.222;2024-01-30T13:07:08;1.77;;;0.30;;
44430;SDS011;30135;47.866;-4.222;2024-01-30T13:09:34;8.98;;;0.73;;
44430;SDS011;30135;47.866;-4.222;2024-01-30T13:12:00;1.33;;;0.30;;
44430;SDS011;30135;47.866;-4.222;2024-01-30T13:14:27;5.70;;;0.65;;
44430;SDS011;30135;47.866;-4.222;2024-01-30T13:16:53;4.10;;;0.65;;
44430;SDS011;30135;47.866;-4.222;2024-01-30T13:19:19;4.03;;;0.80;;
44430;SDS011;30135;47.866;-4.222;2024-01-30T13:21:45;5.45;;;0.90;;
44430;SDS011;30135;47.866;-4.222;2024-01-30T13:24:11;5.07;;;0.45;;
44430;SDS011;30135;47.866;-4.222;2024-01-30T13:26:37;4.97;;;0.98;;
44430;SDS011;30135;47.866;-4.222;2024-01-30T13:29:03;2.92;;;0.95;;
44430;SDS011;30135;47.866;-4.222;2024-01-30T13:31:29;3.17;;;1.40;;
44430;SDS011;30135;47.866;-4.222;2024-01-30T13:33:55;4.10;;;0.77;;
44430;SDS011;30135;47.866;-4.222;2024-01-30T13:36:22;7.60;;;1.48;;
44430;SDS011;30135;47.866;-4.222;2024-01-30T13:38:48;3.58;;;0.40;;
44430;SDS011;30135;47.866;-4.222;2024-01-30T13:41:14;13.82;;;0.90;;
44430;SDS011;30135;47.866;-4.222;2024-01-30T13:43:43;4.15;;;0.60;;
44430;SDS011;30135;47.866;-4.222;2024-01-30T13:46:09;6.35;;;1.25;;
44430;SDS011;30135;47.866;-4.222;2024-01-30T13:48:36;46.53;;;2.97;;
44430;SDS011;30135;47.866;-4.222;2024-01-30T13:51:02;15.48;;;1.13;;
44430;SDS011;30135;47.866;-4.222;2024-01-30T13:53:28;7.13;;;0.80;;
44430;SDS011;30135;47.866;-4.222;2024-01-30T13:55:54;3.90;;;0.70;;
44430;SDS011;30135;47.866;-4.222;2024-01-30T13:58:20;11.60;;;1.48;;
44430;SDS011;30135;47.866;-4.222;2024-01-30T14:00:46;17.73;;;0.77;;
44430;SDS011;30135;47.866;-4.222;2024-01-30T14:03:12;2.35;;;0.60;;
44430;SDS011;30135;47.866;-4.222;2024-01-30T14:05:38;3.67;;;0.45;;
44430;SDS011;30135;47.866;-4.222;2024-01-30T14:08:05;6.97;;;0.80;;
44430;SDS011;30135;47.866;-4.222;2024-01-30T14:10:33;12.40;;;1.00;;
44430;SDS011;30135;47.866;-4.222;2024-01-30T14:12:59;6.50;;;0.52;;
44430;SDS011;30135;47.866;-4.222;2024-01-30T14:15:25;8.05;;;2.35;;
44430;SDS011;30135;47.866;-4.222;2024-01-30T14:17:51;46.58;;;8.13;;
44430;SDS011;30135;47.866;-4.222;2024-01-30T14:20:18;24.42;;;4.53;;
44430;SDS011;30135;47.866;-4.222;2024-01-30T14:22:44;15.50;;;4.20;;
44430;SDS011;30135;47.866;-4.222;2024-01-30T14:25:10;13.40;;;2.42;;
44430;SDS011;30135;47.866;-4.222;2024-01-30T14:27:37;14.93;;;2.80;;
44430;SDS011;30135;47.866;-4.222;2024-01-30T14:30:03;6.93;;;1.70;;
44430;SDS011;30135;47.866;-4.222;2024-01-30T14:32:30;6.68;;;1.67;;
44430;SDS011;30135;47.866;-4.222;2024-01-30T14:34:56;8.90;;;2.60;;
44430;SDS011;30135;47.866;-4.222;2024-01-30T14:37:22;10.48;;;2.97;;